Time;durP1;ratioP1;P1;durP2;ratioP2;P2;SDS_P1;SDS_P2;PMS_P1;PMS_P2;Temp;Humidity;BMP_temperature;BMP_pressure;BME280_temperature;BME280_humidity;BME280_pressure;Samples;Min_cycle;Max_cycle;Signal;HPM_P1;HPM_P2
2023/09/08 00:00:00;;;;;;;4.93;3.95;;;18.00;68.50;;;17.21;82.69;96259.75;6109385;23;20013;-62
2023/09/08 00:02:27;;;;;;;5.00;4.40;;;18.00;68.50;;;17.18;83.22;96254.88;6107941;23;20029;-62
2023/09/08 00:04:53;;;;;;;5.63;4.28;;;17.90;68.80;;;17.16;83.99;96267.56;6134349;23;20037;-63
2023/09/08 00:07:18;;;;;;;5.38;4.45;;;17.80;69.10;;;17.10;83.98;96253.34;6133588;23;20002;-62
2023/09/08 00:09:44;;;;;;;8.13;4.63;;;17.80;69.10;;;17.07;84.25;96261.78;6110069;23;20061;-63
2023/09/08 00:12:10;;;;;;;6.38;4.50;;;17.80;69.50;;;17.03;85.42;96252.63;6084724;23;20014;-63
2023/09/08 00:14:35;;;;;;;4.78;4.10;;;17.70;69.70;;;16.99;84.71;96262.09;6133427;23;20022;-62
2023/09/08 00:17:01;;;;;;;7.45;5.07;;;17.70;69.80;;;16.98;85.30;96262.31;6133998;23;20400;-62
2023/09/08 00:19:27;;;;;;;6.50;4.30;;;17.70;70.00;;;16.96;85.93;96262.53;6130862;23;20459;-62
2023/09/08 00:21:53;;;;;;;8.55;4.82;;;17.70;70.20;;;16.94;86.69;96267.25;6109902;23;20112;-63
2023/09/08 00:24:19;;;;;;;5.82;4.60;;;17.70;70.20;;;16.92;86.16;96261.34;6111775;23;20440;-63
2023/09/08 00:26:45;;;;;;;8.23;5.07;;;17.60;70.30;;;16.88;87.31;96260.19;6134271;23;20045;-62
2023/09/08 00:29:10;;;;;;;6.25;4.45;;;17.60;70.50;;;16.84;87.39;96265.16;6134177;23;20026;-63
2023/09/08 00:31:36;;;;;;;5.40;4.38;;;17.60;70.60;;;16.83;87.73;96257.41;6108813;23;20329;-62
2023/09/08 00:34:02;;;;;;;6.88;4.40;;;17.60;70.70;;;16.82;87.69;96261.91;6110410;23;20454;-62
2023/09/08 00:36:27;;;;;;;6.00;4.80;;;17.60;70.80;;;16.81;88.23;96243.53;6111240;23;20448;-62
2023/09/08 00:38:53;;;;;;;5.40;4.30;;;17.60;70.70;;;16.80;87.86;96255.19;6134050;23;20459;-62
2023/09/08 00:41:19;;;;;;;6.45;4.55;;;17.60;70.60;;;16.76;87.83;96251.38;6109205;23;20030;-63
2023/09/08 00:43:45;;;;;;;5.13;4.47;;;17.50;70.50;;;16.73;87.95;96252.59;6133699;23;20029;-62
2023/09/08 00:46:10;;;;;;;6.53;4.38;;;17.50;70.40;;;16.70;87.67;96252.25;6108823;23;20483;-62
2023/09/08 00:48:37;;;;;;;8.13;4.70;;;17.50;70.50;;;16.65;87.93;96252.06;6132934;23;20443;-63
2023/09/08 00:51:05;;;;;;;6.13;4.35;;;17.40;70.60;;;16.62;88.13;96250.69;6085398;23;20010;-63
2023/09/08 00:53:31;;;;;;;7.60;4.07;;;17.50;70.60;;;16.61;88.33;96254.38;6132957;23;20005;-62
2023/09/08 00:55:57;;;;;;;6.03;4.60;;;17.50;70.60;;;16.56;88.45;96258.75;6109389;23;20093;-62
2023/09/08 00:58:22;;;;;;;6.57;4.80;;;17.40;70.80;;;16.50;88.91;96258.56;6108882;23;20010;-62
2023/09/08 01:00:48;;;;;;;7.20;4.53;;;17.30;70.90;;;16.46;89.15;96251.28;6084356;23;20085;-62
2023/09/08 01:03:14;;;;;;;4.75;4.28;;;17.20;71.10;;;16.44;89.37;96253.34;6110017;23;20009;-63
2023/09/08 01:05:40;;;;;;;5.82;4.95;;;17.20;71.10;;;16.39;89.53;96254.00;6108964;23;20010;-62
2023/09/08 01:08:06;;;;;;;5.20;4.35;;;17.20;71.10;;;16.38;89.46;96249.72;6109614;23;20014;-63
2023/09/08 01:10:36;;;;;;;6.90;4.43;;;17.20;71.20;;;16.37;89.69;96252.63;6108812;23;20044;-62
2023/09/08 01:13:02;;;;;;;;;;;17.10;71.30;;;16.30;91.12;96252.69;6110185;23;20010;-62
2023/09/08 01:15:28;;;;;;;7.25;4.78;;;17.10;71.40;;;16.24;89.55;96246.41;6060836;23;19928;-62
2023/09/08 01:17:54;;;;;;;9.13;5.15;;;17.10;71.60;;;16.24;90.00;96258.88;6109653;23;20530;-62
2023/09/08 01:20:23;;;;;;;5.97;4.97;;;17.00;71.80;;;16.21;91.32;96260.13;6106309;23;20506;-62
2023/09/08 01:23:13;;;;;;;5.80;4.45;;;17.00;72.00;;;16.21;92.28;96264.63;6133325;23;20064;-62
2023/09/08 01:25:45;;;;;;;7.72;5.10;;;17.00;72.20;;;16.18;91.75;96265.06;6109677;23;20014;-62
2023/09/08 01:28:11;;;;;;;6.97;5.13;;;16.90;72.20;;;16.15;91.16;96247.72;6108931;23;20036;-62
2023/09/08 01:30:39;;;;;;;6.32;4.85;;;16.90;72.20;;;16.13;91.03;96251.66;6084089;23;20408;-61
2023/09/08 01:33:04;;;;;;;6.15;4.85;;;16.90;72.30;;;16.09;91.17;96256.59;6110038;23;20010;-62
2023/09/08 01:35:30;;;;;;;6.72;4.88;;;16.90;72.20;;;16.05;92.19;96254.56;6084137;23;20010;-62
2023/09/08 01:37:56;;;;;;;8.52;5.07;;;16.90;72.30;;;16.03;92.47;96251.31;6108754;23;20398;-61
2023/09/08 01:40:22;;;;;;;7.75;5.15;;;16.80;72.40;;;16.01;91.95;96248.88;6109558;23;20014;-62
2023/09/08 01:42:48;;;;;;;5.85;4.78;;;16.80;72.40;;;15.98;92.49;96248.53;6132930;23;20014;-62
2023/09/08 01:45:14;;;;;;;6.50;5.05;;;16.80;72.30;;;15.95;92.73;96254.25;6110134;23;20002;-63
2023/09/08 01:47:39;;;;;;;6.85;4.50;;;16.80;72.40;;;15.91;92.79;96246.75;6110464;23;20002;-63
2023/09/08 01:50:06;;;;;;;6.38;5.28;;;16.80;72.60;;;15.88;92.93;96244.53;6133875;23;20351;-63
2023/09/08 01:52:31;;;;;;;5.00;4.40;;;16.70;72.90;;;15.87;94.36;96242.09;6110055;23;20017;-63
2023/09/08 01:54:57;;;;;;;6.28;5.30;;;16.70;73.00;;;15.87;93.57;96242.91;6106721;23;20344;-62
2023/09/08 01:57:23;;;;;;;6.38;4.93;;;16.70;73.20;;;15.88;94.15;96241.88;6133621;23;20467;-61
2023/09/08 01:59:49;;;;;;;6.85;5.03;;;16.70;73.20;;;15.88;93.89;96241.88;6108098;23;20144;-61
2023/09/08 02:02:14;;;;;;;7.13;5.07;;;16.70;73.10;;;15.85;94.75;96239.66;6133380;23;20022;-62
2023/09/08 02:04:40;;;;;;;5.72;5.05;;;16.70;73.30;;;15.84;94.23;96238.06;6108082;23;20002;-62
2023/09/08 02:07:06;;;;;;;7.55;5.38;;;16.60;73.50;;;15.80;94.64;96234.19;6133288;23;20016;-61
2023/09/08 02:09:36;;;;;;;7.47;5.10;;;16.60;73.50;;;15.79;95.07;96229.91;6108043;23;20505;-63
2023/09/08 02:12:01;;;;;;;5.85;4.90;;;16.60;73.60;;;15.79;95.15;96234.41;6083678;23;20085;-62
2023/09/08 02:14:27;;;;;;;5.53;4.78;;;16.70;73.60;;;15.78;96.07;96233.59;6109221;23;20032;-62
2023/09/08 02:16:54;;;;;;;6.70;5.03;;;16.60;73.60;;;15.80;95.96;96236.84;6108181;23;20013;-62
2023/09/08 02:19:20;;;;;;;7.00;5.45;;;16.70;73.60;;;15.79;96.15;96232.56;6106135;23;20022;-62
2023/09/08 02:21:46;;;;;;;7.57;5.10;;;16.70;73.70;;;15.78;95.50;96230.94;6109918;23;20065;-62
2023/09/08 02:24:11;;;;;;;6.78;5.32;;;16.70;73.40;;;15.77;95.92;96231.97;6110189;23;20006;-62
2023/09/08 02:26:38;;;;;;;8.45;5.30;;;16.70;73.30;;;15.73;96.26;96237.94;6109247;23;20014;-62
2023/09/08 02:29:04;;;;;;;6.32;5.30;;;16.60;73.50;;;15.70;96.08;96241.03;6086468;23;20411;-62
2023/09/08 02:31:30;;;;;;;7.53;5.47;;;16.60;73.50;;;15.66;95.85;96223.94;6134278;23;20089;-62
2023/09/08 02:33:56;;;;;;;6.97;5.13;;;16.50;73.40;;;15.60;94.99;96234.34;6086006;23;20033;-62
2023/09/08 02:36:25;;;;;;;6.60;5.47;;;16.40;73.40;;;15.58;96.16;96224.97;6086267;23;20061;-62
2023/09/08 02:38:54;;;;;;;8.85;5.65;;;16.40;73.70;;;15.56;96.75;96229.69;6086416;23;20073;-62
2023/09/08 02:41:20;;;;;;;10.43;5.57;;;16.40;74.10;;;15.53;97.12;96222.97;6110270;23;20348;-63
2023/09/08 02:43:46;;;;;;;5.20;4.47;;;16.40;74.10;;;15.54;96.22;96226.44;6134909;23;20092;-62
2023/09/08 02:46:12;;;;;;;7.60;5.47;;;16.40;73.90;;;15.53;97.07;96227.47;6110218;23;20007;-62
2023/09/08 02:48:38;;;;;;;9.13;5.35;;;16.40;74.10;;;15.52;96.50;96223.19;6109806;23;20006;-63
2023/09/08 02:51:04;;;;;;;7.03;5.13;;;16.40;74.00;;;15.50;96.88;96225.25;6134586;23;19999;-62
2023/09/08 02:53:30;;;;;;;5.90;4.32;;;16.40;74.10;;;15.48;96.93;96224.66;6110115;23;20006;-62
2023/09/08 02:55:56;;;;;;;8.38;5.57;;;16.40;74.10;;;15.48;97.10;96224.66;6110215;23;20392;-62
2023/09/08 02:58:22;;;;;;;5.75;4.78;;;16.40;74.20;;;15.47;97.77;96226.50;6134882;23;20042;-62
2023/09/08 03:00:48;;;;;;;5.78;5.05;;;16.40;74.60;;;15.47;98.42;96233.63;6109413;23;20042;-63
2023/09/08 03:03:13;;;;;;;6.78;5.50;;;16.40;74.40;;;15.47;98.43;96225.69;6135757;23;20034;-62
2023/09/08 03:05:39;;;;;;;6.38;5.13;;;16.40;74.50;;;15.46;98.13;96224.06;6134860;23;20061;-63
2023/09/08 03:08:05;;;;;;;8.38;5.75;;;16.40;74.50;;;15.44;98.75;96224.28;6110299;23;20010;-62
2023/09/08 03:10:34;;;;;;;8.00;4.97;;;16.40;74.40;;;15.45;99.14;96222.44;6110658;23;20017;-62
2023/09/08 03:13:00;;;;;;;5.53;4.95;;;16.40;74.50;;;15.43;98.54;96232.47;6110337;23;20344;-62
2023/09/08 03:15:28;;;;;;;7.75;5.85;;;16.40;74.50;;;15.40;98.76;96235.53;6113544;23;20033;-63
2023/09/08 03:17:59;;;;;;;6.22;5.40;;;16.30;74.50;;;15.32;98.78;96237.41;6109846;23;20026;-62
2023/09/08 03:20:28;;;;;;;6.70;5.35;;;16.20;74.50;;;15.28;98.77;96236.22;6083993;23;20021;-62
2023/09/08 03:22:54;;;;;;;6.78;5.80;;;16.10;74.60;;;15.22;98.69;96231.78;6109600;23;20341;-62
2023/09/08 03:25:20;;;;;;;7.38;6.18;;;16.10;75.00;;;15.16;98.64;96232.66;6134510;23;20009;-63
2023/09/08 03:27:46;;;;;;;13.02;11.13;;;16.00;75.10;;;15.11;100.00;96226.34;6109456;23;20049;-63
2023/09/08 03:30:12;;;;;;;34.35;28.88;;;16.00;75.60;;;15.07;100.00;96236.56;6109989;23;20014;-62
2023/09/08 03:32:38;;;;;;;25.08;20.30;;;15.90;75.90;;;15.04;100.00;96228.22;6134204;23;20021;-62
2023/09/08 03:35:08;;;;;;;12.52;9.52;;;16.00;76.00;;;15.01;100.00;96235.59;6110814;23;20014;-62
2023/09/08 03:37:36;;;;;;;14.40;10.82;;;15.90;76.10;;;14.99;100.00;96235.00;6133728;23;20016;-63
2023/09/08 03:40:05;;;;;;;23.30;16.33;;;16.00;76.20;;;14.96;100.00;96234.59;6132680;23;20470;-62
2023/09/08 03:42:31;;;;;;;16.70;14.50;;;15.90;76.10;;;14.94;100.00;96239.31;6109924;23;20463;-62
2023/09/08 03:44:56;;;;;;;13.57;11.20;;;15.90;75.90;;;14.94;100.00;96241.97;6110145;23;21546;-62
2023/09/08 03:47:22;;;;;;;9.90;8.70;;;16.00;75.80;;;14.91;100.00;96242.34;6109417;23;21434;-63
2023/09/08 03:49:48;;;;;;;12.00;9.18;;;15.90;75.50;;;14.89;100.00;96245.22;6109993;23;20025;-62
2023/09/08 03:52:13;;;;;;;17.38;13.48;;;15.90;75.70;;;14.85;100.00;96249.31;6085626;23;20006;-62
2023/09/08 03:54:39;;;;;;;17.45;15.65;;;15.80;75.70;;;14.85;100.00;96245.84;6134213;23;20035;-62
2023/09/08 03:57:05;;;;;;;9.30;7.88;;;15.80;75.80;;;14.83;100.00;96243.44;6110072;23;20006;-62
2023/09/08 03:59:31;;;;;;;14.00;12.50;;;15.80;75.80;;;14.79;100.00;96249.34;6110098;23;20092;-62
2023/09/08 04:01:57;;;;;;;13.38;10.73;;;15.80;75.70;;;14.75;100.00;96242.88;6109264;23;20323;-62
2023/09/08 04:04:22;;;;;;;10.73;8.07;;;15.70;75.50;;;14.67;100.00;96243.91;6110029;23;20014;-62
2023/09/08 04:06:48;;;;;;;8.15;6.63;;;15.60;75.70;;;14.63;100.00;96251.47;6109005;23;20432;-62
2023/09/08 04:09:14;;;;;;;6.88;5.93;;;15.60;75.80;;;14.61;100.00;96242.09;6110001;23;20011;-63
2023/09/08 04:11:40;;;;;;;8.77;6.78;;;15.60;76.00;;;14.59;100.00;96239.66;6109708;23;20017;-62
2023/09/08 04:14:06;;;;;;;11.52;6.25;;;15.60;76.30;;;14.60;100.00;96245.78;6112032;23;20006;-63
2023/09/08 04:16:31;;;;;;;6.95;6.20;;;15.60;76.30;;;14.57;100.00;96252.31;6134084;23;20010;-63
2023/09/08 04:18:57;;;;;;;7.55;6.25;;;15.50;76.30;;;14.58;100.00;96251.28;6107051;23;20029;-62
2023/09/08 04:21:23;;;;;;;7.55;6.40;;;15.50;76.40;;;14.56;100.00;96248.03;6086379;23;20018;-62
2023/09/08 04:23:48;;;;;;;8.35;6.70;;;15.50;76.50;;;14.54;100.00;96242.16;6109142;23;20026;-63
2023/09/08 04:26:14;;;;;;;40.45;33.03;;;15.50;76.50;;;14.54;100.00;96238.69;6110889;23;20006;-63
2023/09/08 04:28:40;;;;;;;33.55;29.25;;;15.50;76.60;;;14.51;100.00;96239.91;6111594;23;20052;-63
2023/09/08 04:31:05;;;;;;;16.42;11.73;;;15.50;76.70;;;14.52;100.00;96228.31;6109841;23;20512;-63
2023/09/08 04:33:31;;;;;;;8.52;7.53;;;15.50;76.90;;;14.52;100.00;96233.59;6134523;23;20436;-63
2023/09/08 04:35:57;;;;;;;8.77;6.95;;;15.50;76.80;;;14.51;100.00;96237.28;6134446;23;20411;-64
2023/09/08 04:38:23;;;;;;;11.52;7.53;;;15.60;76.70;;;14.51;100.00;96242.56;6111100;23;20431;-62
2023/09/08 04:40:49;;;;;;;7.80;7.00;;;15.50;76.60;;;14.53;100.00;96234.41;6109333;23;20029;-64
2023/09/08 04:43:15;;;;;;;7.85;6.70;;;15.50;76.50;;;14.52;100.00;96238.91;6109751;23;20053;-63
2023/09/08 04:45:41;;;;;;;7.55;6.75;;;15.50;76.60;;;14.52;100.00;96243.38;6133365;23;20013;-63
2023/09/08 04:48:07;;;;;;;9.25;6.95;;;15.50;76.50;;;14.49;100.00;96249.91;6107623;23;20069;-63
2023/09/08 04:50:32;;;;;;;7.45;6.60;;;15.50;76.40;;;14.47;100.00;96251.09;6107093;23;20750;-63
2023/09/08 04:52:58;;;;;;;7.57;6.10;;;15.50;76.50;;;14.44;100.00;96251.53;6099710;23;20092;-63
2023/09/08 04:55:24;;;;;;;10.38;7.10;;;15.50;76.60;;;14.43;100.00;96253.38;6106353;23;20018;-63
2023/09/08 04:57:50;;;;;;;8.20;6.63;;;15.50;76.70;;;14.44;100.00;96260.28;6108155;23;20533;-63
2023/09/08 05:00:19;;;;;;;9.23;7.13;;;15.50;76.80;;;14.42;100.00;96257.00;6085601;23;20381;-62
2023/09/08 05:02:45;;;;;;;11.35;6.97;;;15.50;76.80;;;14.41;100.00;96252.72;6133993;23;20002;-63
2023/09/08 05:05:10;;;;;;;7.60;6.85;;;15.50;76.80;;;14.41;100.00;96255.38;6133749;23;20017;-64
2023/09/08 05:07:36;;;;;;;7.80;7.05;;;15.50;76.60;;;14.40;100.00;96251.94;6109842;23;20021;-64
2023/09/08 05:10:02;;;;;;;8.23;6.43;;;15.40;76.60;;;14.38;100.00;96258.44;6133484;23;20045;-62
2023/09/08 05:12:28;;;;;;;10.23;6.10;;;15.30;77.00;;;14.34;100.00;96263.34;6084436;23;20032;-62
2023/09/08 05:14:56;;;;;;;8.30;6.45;;;15.40;76.80;;;14.32;100.00;96264.59;6134271;23;20539;-62
2023/09/08 05:17:24;;;;;;;8.65;7.28;;;15.40;76.80;;;14.30;100.00;96256.84;6108928;23;20006;-62
2023/09/08 05:19:49;;;;;;;8.30;7.18;;;15.40;77.00;;;14.30;100.00;96262.16;6106151;23;20024;-61
2023/09/08 05:22:15;;;;;;;9.27;7.13;;;15.40;77.20;;;14.32;100.00;96256.66;6108430;23;20409;-62
2023/09/08 05:24:41;;;;;;;8.65;6.68;;;15.50;77.10;;;14.32;100.00;96265.41;6109255;23;20364;-62
2023/09/08 05:27:06;;;;;;;8.82;6.15;;;15.50;76.70;;;14.33;100.00;96266.22;6084536;23;20025;-62
2023/09/08 05:29:32;;;;;;;7.78;5.90;;;15.50;76.90;;;14.33;100.00;96266.22;6108975;23;20084;-62
2023/09/08 05:31:58;;;;;;;11.18;7.00;;;15.50;76.80;;;14.33;100.00;96271.50;6108098;23;20038;-61
2023/09/08 05:34:24;;;;;;;12.27;10.73;;;15.60;76.60;;;14.36;100.00;96276.38;6109370;23;20041;-62
2023/09/08 05:36:49;;;;;;;12.55;8.98;;;15.60;76.50;;;14.36;100.00;96273.72;6133019;23;20014;-62
2023/09/08 05:39:16;;;;;;;6.57;5.90;;;15.60;76.40;;;14.40;100.00;96278.38;6109225;23;20124;-63
2023/09/08 05:41:42;;;;;;;6.70;5.28;;;15.70;76.30;;;14.44;100.00;96278.81;6084390;23;20053;-65
2023/09/08 05:44:07;;;;;;;6.53;5.68;;;15.70;76.30;;;14.46;100.00;96282.06;6133766;23;20017;-65
2023/09/08 05:46:33;;;;;;;7.85;5.75;;;15.70;76.40;;;14.51;100.00;96284.09;6083637;23;20077;-64
2023/09/08 05:48:59;;;;;;;6.32;5.72;;;15.80;76.40;;;14.55;100.00;96285.31;6083628;23;20010;-64
2023/09/08 05:51:24;;;;;;;6.70;5.80;;;15.90;76.30;;;14.62;100.00;96283.44;6134130;23;20023;-63
2023/09/08 05:53:50;;;;;;;8.57;6.10;;;16.00;76.60;;;14.70;100.00;96278.72;6109225;23;20089;-63
2023/09/08 05:56:18;;;;;;;8.63;6.63;;;16.10;77.00;;;14.78;100.00;96287.47;6110449;23;20010;-64
2023/09/08 05:58:44;;;;;;;8.27;6.80;;;16.20;77.10;;;14.85;100.00;96290.88;6134902;23;20061;-62
2023/09/08 06:01:09;;;;;;;9.10;7.82;;;16.30;77.20;;;14.93;100.00;96287.97;6109534;23;20030;-62
2023/09/08 06:03:35;;;;;;;10.25;7.85;;;16.40;77.40;;;15.03;100.00;96288.34;6110801;23;20014;-62
2023/09/08 06:06:01;;;;;;;10.05;7.63;;;16.50;77.40;;;15.11;100.00;96295.22;6085846;23;20017;-62
2023/09/08 06:08:27;;;;;;;12.38;7.70;;;16.50;77.60;;;15.20;100.00;96291.31;6110911;23;20068;-62
2023/09/08 06:10:53;;;;;;;9.98;8.20;;;16.60;77.40;;;15.28;100.00;96291.88;6110649;23;20085;-63
2023/09/08 06:13:18;;;;;;;9.85;7.88;;;16.70;77.20;;;15.38;100.00;96298.53;6110421;23;20025;-63
2023/09/08 06:15:44;;;;;;;11.00;8.23;;;16.80;77.00;;;15.46;100.00;96293.81;6113803;23;20482;-64
2023/09/08 06:18:11;;;;;;;9.55;8.30;;;17.00;76.10;;;15.56;100.00;96295.97;6133933;23;20397;-63
2023/09/08 06:20:37;;;;;;;10.90;7.60;;;17.10;75.90;;;15.65;100.00;96294.72;6109956;23;20460;-63
2023/09/08 06:23:03;;;;;;;9.10;7.88;;;17.30;75.40;;;15.74;100.00;96296.06;6110506;23;20017;-63
2023/09/08 06:25:28;;;;;;;8.95;8.00;;;17.40;75.00;;;15.83;100.00;96300.06;6110893;23;20014;-63
2023/09/08 06:27:54;;;;;;;13.27;8.48;;;17.60;74.60;;;15.92;100.00;96298.78;6111041;23;20045;-63
2023/09/08 06:30:20;;;;;;;10.93;8.43;;;17.60;73.90;;;16.00;100.00;96297.69;6134620;23;20025;-63
2023/09/08 06:32:46;;;;;;;10.45;8.90;;;17.70;73.80;;;16.10;100.00;96295.34;6111447;23;20018;-64
2023/09/08 06:35:11;;;;;;;10.27;9.18;;;17.80;73.70;;;16.18;100.00;96292.41;6110402;23;20010;-63
2023/09/08 06:37:38;;;;;;;9.68;8.52;;;17.90;73.70;;;16.26;100.00;96295.81;6135649;23;20037;-63
2023/09/08 06:40:05;;;;;;;11.23;8.77;;;17.90;74.00;;;16.34;100.00;96292.88;6086341;23;20014;-63
2023/09/08 06:42:31;;;;;;;9.90;8.90;;;17.90;72.80;;;16.39;100.00;96293.84;6085756;23;20388;-64
2023/09/08 06:44:57;;;;;;;11.13;8.65;;;18.00;72.30;;;16.47;100.00;96296.19;6135508;23;20014;-63
2023/09/08 06:47:22;;;;;;;9.02;8.02;;;18.10;72.60;;;16.59;100.00;96298.13;6134469;23;20045;-63
2023/09/08 06:49:48;;;;;;;12.98;8.77;;;18.30;72.40;;;16.70;100.00;96300.06;6112622;23;20137;-63
2023/09/08 06:52:14;;;;;;;12.63;9.40;;;18.40;72.70;;;16.77;100.00;96303.47;6134849;23;20005;-63
2023/09/08 06:54:39;;;;;;;10.80;8.75;;;18.40;71.50;;;16.87;100.00;96310.91;6133995;23;20041;-63
2023/09/08 06:57:05;;;;;;;9.75;8.75;;;18.50;70.80;;;17.00;100.00;96311.56;6109905;23;20021;-63
2023/09/08 06:59:31;;;;;;;13.85;9.57;;;18.70;70.50;;;17.14;100.00;96307.66;6109815;23;20049;-64
2023/09/08 07:01:57;;;;;;;10.85;8.85;;;19.00;71.10;;;17.31;100.00;96307.06;6134905;23;20033;-63
2023/09/08 07:04:22;;;;;;;10.80;8.52;;;19.30;70.70;;;17.49;100.00;96304.34;6109637;23;20073;-65
2023/09/08 07:06:54;;;;;;;13.38;9.05;;;19.60;68.60;;;17.68;100.00;96302.47;6109987;23;20029;-65
2023/09/08 07:09:20;;;;;;;11.23;7.78;;;19.90;67.80;;;17.89;98.51;96303.75;6109356;23;20014;-67
2023/09/08 07:11:46;;;;;;;10.27;8.73;;;20.40;66.30;;;18.10;98.50;96300.50;6134462;23;20029;-66
2023/09/08 07:14:12;;;;;;;12.93;8.48;;;20.90;64.40;;;18.34;97.43;96296.84;6109554;23;20005;-66
2023/09/08 07:16:38;;;;;;;11.52;7.70;;;21.70;62.30;;;18.61;96.92;96291.00;6086082;23;20002;-64
2023/09/08 07:19:03;;;;;;;8.85;7.85;;;22.20;61.10;;;18.91;96.50;96302.31;6131893;23;20034;-64
2023/09/08 07:21:29;;;;;;;12.00;8.30;;;22.70;59.60;;;19.23;96.22;96304.50;6108940;23;20007;-65
2023/09/08 07:23:55;;;;;;;10.48;8.35;;;23.10;59.20;;;19.55;95.13;96299.53;6135218;23;20037;-65
2023/09/08 07:26:21;;;;;;;9.63;8.23;;;23.50;57.70;;;19.88;93.17;96298.75;6134245;23;20030;-65
2023/09/08 07:28:46;;;;;;;9.93;8.23;;;24.00;56.00;;;20.26;91.72;96302.53;6110458;23;20025;-65
2023/09/08 07:31:12;;;;;;;12.07;8.50;;;24.40;55.60;;;20.67;90.55;96298.59;6129977;23;20337;-65
2023/09/08 07:33:38;;;;;;;10.07;7.70;;;24.70;54.30;;;21.09;86.69;96296.19;6111141;23;20037;-64
2023/09/08 07:36:05;;;;;;;10.25;8.25;;;25.10;52.00;;;21.49;85.25;96292.31;6107569;23;20089;-64
2023/09/08 07:38:31;;;;;;;13.52;8.38;;;25.50;52.80;;;21.95;83.58;96289.00;6107744;23;20081;-65
2023/09/08 07:40:59;;;;;;;10.10;7.60;;;25.80;52.30;;;22.42;81.71;96276.75;6108704;23;20059;-65
2023/09/08 07:43:25;;;;;;;11.68;8.32;;;26.20;51.80;;;22.83;77.82;96272.41;6076468;23;20006;-66
2023/09/08 07:45:51;;;;;;;11.05;7.95;;;26.60;48.70;;;23.21;75.60;96263.16;6064732;23;20014;-68
2023/09/08 07:48:17;;;;;;;9.32;8.02;;;26.90;48.40;;;23.59;74.15;96263.81;6103707;23;20420;-66
2023/09/08 07:50:42;;;;;;;13.02;8.35;;;27.20;48.40;;;23.95;72.63;96261.91;6103430;23;20407;-65
2023/09/08 07:53:08;;;;;;;10.85;7.97;;;27.50;48.00;;;24.24;70.42;96262.97;6103358;23;20479;-64
2023/09/08 07:55:34;;;;;;;8.52;7.43;;;27.60;47.10;;;24.49;68.94;96259.47;6072884;23;20143;-65
2023/09/08 07:58:01;;;;;;;8.52;7.57;;;28.00;46.70;;;24.71;67.81;96249.16;6078936;23;20452;-65
2023/09/08 08:00:27;;;;;;;10.50;7.95;;;28.10;46.00;;;24.92;66.71;96255.28;6107345;23;20026;-64
2023/09/08 08:02:54;;;;;;;7.90;6.97;;;28.50;45.50;;;25.14;65.34;96256.81;6120197;23;20448;-64
2023/09/08 08:05:20;;;;;;;10.77;6.53;;;28.70;44.90;;;25.32;64.75;96248.88;6107644;23;20093;-65
2023/09/08 08:07:46;;;;;;;8.38;7.07;;;28.90;44.80;;;25.55;64.25;96263.53;6133474;23;20137;-65
2023/09/08 08:10:12;;;;;;;9.77;7.40;;;29.10;44.80;;;25.75;63.34;96253.75;6108875;23;20013;-64
2023/09/08 08:12:41;;;;;;;11.93;7.30;;;29.20;44.30;;;25.94;63.36;96260.06;6108960;23;20415;-66
2023/09/08 08:15:09;;;;;;;12.73;9.13;;;29.50;45.00;;;26.09;61.52;96254.53;6123572;23;20006;-64
2023/09/08 08:17:35;;;;;;;11.23;7.55;;;29.60;43.00;;;26.15;60.67;96250.69;6130685;23;20033;-63
2023/09/08 08:20:06;;;;;;;10.93;6.43;;;29.70;42.50;;;26.28;59.90;96248.44;6082047;23;20083;-65
2023/09/08 08:22:33;;;;;;;9.68;6.82;;;30.00;42.30;;;26.42;59.16;96235.91;6131055;23;20010;-64
2023/09/08 08:24:59;;;;;;;9.85;6.70;;;29.90;42.30;;;26.53;58.64;96240.09;6109964;23;21721;-64
2023/09/08 08:27:25;;;;;;;10.15;7.10;;;30.00;42.70;;;26.69;58.48;96236.13;6083700;23;20061;-65
2023/09/08 08:29:51;;;;;;;9.07;7.53;;;30.30;42.40;;;26.82;58.72;96231.94;6108582;23;20356;-65
2023/09/08 08:32:17;;;;;;;10.68;7.47;;;30.30;42.40;;;26.94;57.42;96234.22;6108706;23;20002;-64
2023/09/08 08:34:44;;;;;;;9.95;7.18;;;30.30;41.90;;;27.05;56.92;96224.91;6109276;23;20013;-64
2023/09/08 08:37:10;;;;;;;7.93;6.75;;;30.40;42.00;;;27.15;56.78;96230.16;6085166;23;20318;-65
2023/09/08 08:39:36;;;;;;;9.98;6.55;;;30.60;41.80;;;27.33;56.09;96226.66;6109009;23;20093;-65
2023/09/08 08:42:09;;;;;;;7.00;6.30;;;30.60;41.70;;;27.50;53.62;96214.53;6076654;23;20011;-65
2023/09/08 08:44:35;;;;;;;8.23;6.55;;;30.80;41.20;;;27.64;55.32;96229.75;6069218;23;20348;-66
2023/09/08 08:47:02;;;;;;;7.28;6.00;;;30.80;41.80;;;27.77;55.21;96225.50;6107705;23;20048;-65
2023/09/08 08:49:31;;;;;;;8.85;6.38;;;31.00;41.20;;;27.97;54.64;96214.34;6109063;23;20335;-65
2023/09/08 08:51:56;;;;;;;6.82;5.60;;;31.10;41.30;;;28.17;55.18;96224.00;6108783;23;20109;-63
2023/09/08 08:54:22;;;;;;;8.55;5.80;;;31.40;41.40;;;28.36;54.40;96221.25;6107584;23;20010;-64
2023/09/08 08:56:48;;;;;;;7.72;5.45;;;31.50;41.30;;;28.56;54.03;96214.66;6084087;23;20010;-64
2023/09/08 08:59:16;;;;;;;6.68;5.82;;;31.60;41.10;;;28.73;53.00;96209.41;6133152;23;20002;-63
2023/09/08 09:01:42;;;;;;;7.82;6.57;;;31.80;39.80;;;28.89;52.30;96207.22;6108518;23;20002;-63
2023/09/08 09:04:07;;;;;;;7.82;5.88;;;31.90;39.70;;;29.05;51.34;96203.09;6109688;23;20026;-64
2023/09/08 09:06:33;;;;;;;11.38;7.38;;;31.80;39.60;;;29.18;51.27;96204.16;6132300;23;19998;-63
2023/09/08 09:08:59;;;;;;;6.70;5.75;;;31.90;39.30;;;29.33;50.92;96194.88;6109095;23;20026;-63
2023/09/08 09:11:25;;;;;;;8.45;6.05;;;32.20;39.60;;;29.52;50.27;96207.19;6082754;23;20010;-65
2023/09/08 09:13:51;;;;;;;6.70;6.00;;;32.30;39.20;;;29.64;49.81;96205.84;6107831;23;20081;-64
2023/09/08 09:16:17;;;;;;;13.60;6.00;;;32.50;38.80;;;29.84;49.75;96195.28;6108241;23;20013;-63
2023/09/08 09:18:59;;;;;;;13.15;8.15;;;32.80;38.30;;;30.04;47.60;96176.94;6129939;23;20002;-63
2023/09/08 09:21:43;;;;;;;9.00;6.20;;;32.60;39.20;;;30.27;47.87;96164.91;6103264;23;20042;-64
2023/09/08 09:24:15;;;;;;;7.88;6.10;;;33.00;39.00;;;30.52;47.79;96162.59;6100197;23;20081;-64
2023/09/08 09:26:41;;;;;;;9.90;7.13;;;33.10;38.80;;;30.75;47.64;96164.13;6106148;23;20013;-63
2023/09/08 09:29:13;;;;;;;9.30;7.30;;;33.50;37.40;;;30.96;45.48;96148.03;6106209;23;20383;-63
2023/09/08 09:32:02;;;;;;;9.10;5.70;;;33.40;37.40;;;31.16;44.92;96152.03;6110989;23;20310;-63
2023/09/08 09:34:28;;;;;;;11.48;6.18;;;33.60;38.20;;;31.32;45.63;96164.06;6111120;23;20325;-65
2023/09/08 09:36:53;;;;;;;6.78;5.10;;;33.50;36.80;;;31.50;45.69;96148.53;6111410;23;20034;-64
2023/09/08 09:39:20;;;;;;;6.85;5.00;;;33.90;37.20;;;31.74;44.27;96150.78;6105991;23;20149;-64
2023/09/08 09:41:47;;;;;;;7.00;5.63;;;34.30;35.80;;;31.81;44.03;96140.19;6081357;23;20434;-64
2023/09/08 09:44:13;;;;;;;7.07;5.15;;;33.80;36.50;;;31.96;44.07;96148.63;6114352;23;20366;-64
2023/09/08 09:46:44;;;;;;;9.38;5.97;;;34.20;36.90;;;32.16;43.17;96141.69;6135679;23;19998;-65
2023/09/08 09:49:13;;;;;;;7.25;4.97;;;34.60;36.60;;;32.39;43.19;96144.97;6085873;23;20006;-67
2023/09/08 09:51:50;;;;;;;9.77;6.05;;;34.90;36.10;;;32.60;39.97;96106.91;6083894;23;20021;-67
2023/09/08 09:54:16;;;;;;;9.10;6.00;;;35.10;34.90;;;32.83;42.01;96127.28;6127520;23;20026;-66
2023/09/08 09:56:42;;;;;;;11.95;5.97;;;35.50;34.30;;;33.07;42.04;96140.28;6112382;23;20042;-67
2023/09/08 09:59:12;;;;;;;7.68;5.45;;;35.50;35.70;;;33.39;40.78;96124.31;6125834;23;20514;-66
2023/09/08 10:01:38;;;;;;;8.40;6.28;;;36.10;34.90;;;33.69;41.66;96135.88;6108081;23;20013;-69
2023/09/08 10:04:05;;;;;;;6.80;6.10;;;36.30;34.20;;;34.02;41.63;96128.50;6133895;23;20466;-65
2023/09/08 10:06:35;;;;;;;6.32;4.60;;;36.70;33.50;;;34.42;38.83;96107.97;6135230;23;20014;-62
2023/09/08 10:09:13;;;;;;;7.28;5.45;;;37.10;32.30;;;34.83;40.21;96120.53;6106172;23;20041;-62
2023/09/08 10:11:47;;;;;;;9.57;6.35;;;37.40;32.00;;;35.15;37.42;96094.97;6109252;23;20014;-63